Estación Meteorológica Peña el Pijo (Robertgarden) [ 07/21/17 06:38:10 CEST ]

Fecha Hora Presion(HPa) Temp (°C) Humedad % Rocio (°C) Viento ( m/s) Direccion Lluvia 1Hora(mm) Lluvia 24H(mm) LLuvia Total(mm)
2017-Apr-05 01:01:55 1011.800 6.6 62 -0.2         1357.67
2017-Apr-05 02:02:04 1011.400 6.4 64 0.1         1357.67
2017-Apr-05 03:01:47 1010.600 5.2 66 -0.6         1357.67
2017-Apr-05 04:01:43 1010.200 4.8 68 -         1357.67
2017-Apr-05 05:01:52 1009.600 4.2 70 -0.8         1357.67
2017-Apr-05 06:03:19 1009.300 3.6 71 -1.2         1357.67
2017-Apr-05 07:01:48 1009.400 3.3 73 -1.1         1357.67
2017-Apr-05 08:01:52 1009.300 3.6 73 -0.8         1357.67
2017-Apr-05 09:01:43 1009.300 6.5 74 2.2         1357.67
2017-Apr-05 10:01:44 1008.900 14.9 48 4.0         1357.67
2017-Apr-05 11:01:46 1008.700 19.4 34 3.0         1357.67
2017-Apr-05 12:01:53 1008.700 20.9 29 2.1         1357.67
2017-Apr-05 13:01:50 1008.600 21.5 29 2.7 1.9 NE     1357.67
2017-Apr-05 14:01:36 1008.200 21.1 24 -0.5         1357.67
2017-Apr-05 15:01:32 1008.200 16.7 36 1.4         1357.67
2017-Apr-05 16:01:38 1007.700 18.0 32 1.0 2.5 SSE     1357.67
2017-Apr-05 17:01:43 1007.600 17.5 32 0.4 2.1 ESE     1357.67
2017-Apr-05 18:01:51 1007.800 17.7 32 0.7 2.1 NNE     1357.67
2017-Apr-05 19:01:47 1007.800 16.3 34 0.3 0.5 ENE     1357.67
2017-Apr-05 20:01:54 1008.300 13.6 39 -0.1         1357.67
2017-Apr-05 21:01:29 1009.200 11.3 53 2.0         1357.67
2017-Apr-05 22:01:50 1009.700 9.6 63 2.9         1357.67
2017-Apr-05 23:01:38 1010.200 7.2 65 1.0         1357.67

Temperatura Máxima:21°    Temperatura Mínima:
Presión Máxima:1011.800 Hpa    Presión Mínima:1007.600 Hpa


Volver